LSGS Airport Information

Runway Information
Runway 07 Length 0 ft width 0 ft
Elevation 1578 ft Threshold 0 ft Heading 0
Runway 25 Length 0 ft Width 0 ft
Elevation 1581 ft Threshold 0 ft Heading 0
Runway 07L Length 1820 ft width 98 ft
Elevation 1578 ft Threshold 0 ft Heading 73
Runway 25R Length 1820 ft Width 98 ft
Elevation 1581 ft Threshold 328 ft Heading 253
Runway 07R Length 6562 ft width 131 ft
Elevation 1580 ft Threshold 164 ft Heading 73
Runway 25L Length 6562 ft Width 131 ft
Elevation 1585 ft Threshold 164 ft Heading 253
Airport Frequencies
Type A/G Name SWISS MILI Frequency 134.275 MHZ
Type APP Name RADAR Frequency 126.825 MHZ
Type GND Name GND Frequency 121.7 MHZ
Type INFO Name INFO Frequency 122.35 MHZ
Type TWR Name TWR Frequency 118.275 MHZ
Airport Navaids
Type VOR-DME Name Montana Frequency 115850 KHZ
Type VOR-DME Name Sion Frequency 112150 KHZ
Airport Weather Information & NOTAM
ADDS - METARS form results

(2328 UTC 23 July 2021)
Data provider http://aviationweather.gov/metar/data/
 
METAR text: LSGS 232320Z AUTO 06003KT CAVOK 21/14 Q1013
Conditions at: LSGS (SION (MIL/CIV/AU, CH) observed 2320 UTC 23 July 2021
Temperature: 21.0°C (70°F)
Dewpoint: 14.0°C (57°F) [RH = 64%]
Pressure (altimeter): 29.91 inches Hg (1013.0 mb)
Winds: from the ENE (60 degrees) at 3 MPH (3 knots; 1.5 m/s)
Visibility: 6 or more miles (10+ km)
Ceiling: ceiling and visibility are OK
Clouds: unknown
Weather: no significant weather observed at this time

METAR text: LSGS 232250Z AUTO 11004KT CAVOK 22/14 Q1013
Conditions at: LSGS (SION (MIL/CIV/AU, CH) observed 2250 UTC 23 July 2021
Temperature: 22.0°C (72°F)
Dewpoint: 14.0°C (57°F) [RH = 60%]
Pressure (altimeter): 29.91 inches Hg (1013.0 mb)
Winds: from the ESE (110 degrees) at 5 MPH (4 knots; 2.1 m/s)
Visibility: 6 or more miles (10+ km)
Ceiling: ceiling and visibility are OK
Clouds: unknown
Weather: no significant weather observed at this time

Forecast for: LSGS (SION (MIL/CIV/AU, CH)
Text: TAF LSGS 231425Z 2315/2324 25007KT 9999 FEW090
Forecast period: 1500 UTC 23 July 2021 to 0000 UTC 24 July 2021
Forecast type: FROM: standard forecast or significant change
Winds: from the WSW (250 degrees) at 8 MPH (7 knots; 3.6 m/s)
Visibility: 6 or more miles (10+ km)
Ceiling: at least 12,000 feet AGL
Clouds: few clouds at 9000 feet AGL
Weather: no significant weather forecast for this period